Portada
METAR-TAF:

METAR-TAF

Aeropuertos :

Aeropuerto de Burgos

Burgos, España

latitud: 42-22N, longitud: 003-38W, altitud: 894 m

Observación

El informe se hizo hace 23 minutos, a las 03:00 UTC
Viento 15 kt del sur-suroeste
Temperatura 7°C
Humedad 93%
Presión 1003 hPa
Visibilidad: 9000 m

METAR: LEBG 210300Z AUTO 20015KT 9000 BKN006/// OVC014/// 07/06 Q1003

Hora: 04:23 (03:23 UTC)

Pronóstico

El informe se hizo hace 1 hora y 23 minutos, a las 02:00 UTC
Pronóstico válido del 21 a las 03 UTC al 21 a las 12 UTC
Viento 10 kt del oeste-suroeste
Visibilidad 10 km o más
Nubes dispersas a una altura de 1500 ft
Cielo nuboso a una altura de 3000 ft
Probabilidad 40% :
Temporalmente
del 21 a las 03 UTC al 21 a las 12 UTC
Visibilidad: 3000 m
Cielo nuboso a una altura de 1000 ft
lluvia, neblina

TAF: LEBG 210200Z 2103/2112 24010KT 9999 SCT015 BKN030 PROB40 TEMPO 2103/2112 3000 RA BR BKN010

Observaciones y pronósticos meteorológicos de más de 4000 aeropuertos (mensajes METAR y TAF).

Los puntos amarillos y rojos representan las estaciones disponibles.

Ponga el ratón en el punto deseado para ver el nombre de la estación.

Haga clic para ver las observaciones y los pronósticos meteorológicos.

Para cambiar el mapa : haga clic en los botones verdes con una cruz de color negro para hacer un zoom, en el botón verde con un guión para alejar o en las flechas verdes para mapas adyacentes.


METAR-TAF: